Forty Fort, Pennsylvania
Current Conditions -  °F | °C
As of 9:54 PM on Monday 22 Dec 2014 (Local Time) from KAVP Reporting Station
Overcast Overcast  
Wind Chill: 40°   Ceiling: 1400
Heat Index: 40°   Visibility: 10mi
Dew Point: 35°   Wind: 3mph
Humidity: 83%   Direction: 340°NNW
Pressure: 30.13"   Gusts: NA
Location:  41.2768°N, 75.8997°W
Report Text: KAVP 230254Z AUTO 34003KT 10SM OVC014 04/02 A3013 RMK AO2 RAB05E24 SLP207 P0000 60000 T00440017 58008
Loading
Personal Weather Stations






























Interactive Weather Map New forecast layout! Learn more

10-Day Weather Forecast

Advertisements
Track Severe Weather on mobile